Time;durP1;ratioP1;P1;durP2;ratioP2;P2;SDS_P1;SDS_P2;PMS_P1;PMS_P2;Temp;Humidity;BMP_temperature;BMP_pressure;BME280_temperature;BME280_humidity;BME280_pressure;Samples;Min_cycle;Max_cycle;Signal;HPM_P1;HPM_P2
2023/03/31 00:00:40;;;;;;;;;;;19.40;86.60;;;;;;5135053;27;19919;-68
2023/03/31 00:03:08;;;;;;;;;;;19.40;86.60;;;;;;5135332;27;19994;-68
2023/03/31 00:05:37;;;;;;;;;;;19.40;86.60;;;;;;5135179;27;19912;-68
2023/03/31 00:08:02;;;;;;;;;;;19.40;86.60;;;;;;5133630;27;20320;-69
2023/03/31 00:10:30;;;;;;;;;;;19.40;86.60;;;;;;5135267;27;19964;-68
2023/03/31 00:12:56;;;;;;;;;;;19.40;86.60;;;;;;5134308;27;20370;-68
2023/03/31 00:15:22;;;;;;;;;;;19.40;86.70;;;;;;5133829;27;19908;-68
2023/03/31 00:17:47;;;;;;;;;;;19.40;86.70;;;;;;5134421;28;19965;-68
2023/03/31 00:20:13;;;;;;;;;;;19.40;86.70;;;;;;5135190;27;20259;-68
2023/03/31 00:22:41;;;;;;;;;;;19.40;86.70;;;;;;5135129;28;20423;-68
2023/03/31 00:25:07;;;;;;;;;;;19.40;86.70;;;;;;5134097;28;19914;-66
2023/03/31 00:27:33;;;;;;;;;;;19.40;86.70;;;;;;5133123;28;19912;-68
2023/03/31 00:29:58;;;;;;;;;;;19.40;86.80;;;;;;5133829;28;20283;-69
2023/03/31 00:32:24;;;;;;;;;;;19.40;86.80;;;;;;5132717;28;19916;-68
2023/03/31 00:34:49;;;;;;;;;;;19.40;86.70;;;;;;5116535;28;19919;-68
2023/03/31 00:37:15;;;;;;;;;;;19.40;86.80;;;;;;5132862;28;19915;-68
2023/03/31 00:39:41;;;;;;;;;;;19.40;86.80;;;;;;5134798;28;20060;-68
2023/03/31 00:42:11;;;;;;;;;;;19.40;86.90;;;;;;5134636;28;19923;-68
2023/03/31 00:44:57;;;;;;;;;;;19.40;86.90;;;;;;5136177;27;19915;-68
2023/03/31 00:47:23;;;;;;;;;;;19.40;86.90;;;;;;5122599;28;19912;-68
2023/03/31 00:49:50;;;;;;;;;;;19.40;86.90;;;;;;5133442;28;19912;-68
2023/03/31 00:52:20;;;;;;;;;;;19.40;86.90;;;;;;5133712;28;19919;-68
2023/03/31 00:54:48;;;;;;;;;;;19.40;86.80;;;;;;5135072;28;19907;-69
2023/03/31 00:57:14;;;;;;;;;;;19.40;86.80;;;;;;5133565;28;19912;-68
2023/03/31 00:59:42;;;;;;;;;;;19.40;86.80;;;;;;5134410;28;19922;-68
2023/03/31 01:02:08;;;;;;;;;;;19.40;86.80;;;;;;5134470;28;20006;-68
2023/03/31 01:04:36;;;;;;;;;;;19.40;86.80;;;;;;5134801;28;19950;-68
2023/03/31 01:07:08;;;;;;;;;;;19.40;86.80;;;;;;5132424;28;20277;-69
2023/03/31 01:09:34;;;;;;;;;;;19.40;86.80;;;;;;5133954;28;19911;-68
2023/03/31 01:12:04;;;;;;;;;;;19.40;86.80;;;;;;5116261;28;20278;-65
2023/03/31 01:14:30;;;;;;;;;;;19.40;86.90;;;;;;5133661;28;19919;-68
2023/03/31 01:16:56;;;;;;;;;;;19.40;86.90;;;;;;5131576;28;19911;-66
2023/03/31 01:19:32;;;;;;;;;;;19.30;86.90;;;;;;5131022;28;19979;-67
2023/03/31 01:22:23;;;;;;;;;;;19.30;86.90;;;;;;5103337;28;19919;-68
2023/03/31 01:25:00;;;;;;;;;;;19.30;87.00;;;;;;5135878;27;20330;-68
2023/03/31 01:27:28;;;;;;;;;;;19.30;87.00;;;;;;5119173;27;20036;-68
2023/03/31 01:29:57;;;;;;;;;;;19.30;86.90;;;;;;5137195;27;19915;-68
2023/03/31 01:32:38;;;;;;;;;;;19.30;87.00;;;;;;5137123;27;19918;-68
2023/03/31 01:35:04;;;;;;;;;;;19.30;87.50;;;;;;5129741;27;19911;-68
2023/03/31 01:37:32;;;;;;;;;;;19.30;87.00;;;;;;5135015;27;19912;-68
2023/03/31 01:39:57;;;;;;;;;;;19.30;87.00;;;;;;5137201;27;20417;-68
2023/03/31 01:42:32;;;;;;;;;;;19.30;87.00;;;;;;5119646;27;19955;-68
2023/03/31 01:45:07;;;;;;;;;;;19.30;87.00;;;;;;5138504;27;19950;-68
2023/03/31 01:47:39;;;;;;;;;;;19.30;87.10;;;;;;5133205;27;20051;-67
2023/03/31 01:50:15;;;;;;;;;;;19.30;87.10;;;;;;5133586;27;19916;-68
2023/03/31 01:52:48;;;;;;;;;;;19.30;87.00;;;;;;5136731;27;19943;-68
2023/03/31 01:55:32;;;;;;;;;;;19.20;87.10;;;;;;5136325;27;19919;-68
2023/03/31 01:58:03;;;;;;;;;;;19.20;87.10;;;;;;5137621;27;20341;-69
2023/03/31 02:00:32;;;;;;;;;;;19.20;87.20;;;;;;5119111;27;19923;-69
2023/03/31 02:03:16;;;;;;;;;;;19.20;87.20;;;;;;5137701;27;19911;-68
2023/03/31 02:05:55;;;;;;;;;;;19.20;87.20;;;;;;5136870;27;20474;-68
2023/03/31 02:08:27;;;;;;;;;;;19.20;87.20;;;;;;5137755;27;19908;-68
2023/03/31 02:10:53;;;;;;;;;;;19.20;87.30;;;;;;5119024;27;20361;-68
2023/03/31 02:13:19;;;;;;;;;;;19.20;87.30;;;;;;5137642;27;19942;-68
2023/03/31 02:15:46;;;;;;;;;;;19.20;87.30;;;;;;5118092;27;19916;-68
2023/03/31 02:18:16;;;;;;;;;;;19.20;87.30;;;;;;5118892;27;20308;-69
2023/03/31 02:20:42;;;;;;;;;;;19.20;87.80;;;;;;5136948;27;19922;-68
2023/03/31 02:23:10;;;;;;;;;;;19.10;87.30;;;;;;5136968;27;19990;-68
2023/03/31 02:25:40;;;;;;;;;;;19.20;87.40;;;;;;5136070;27;19908;-68
2023/03/31 02:28:09;;;;;;;;;;;19.20;87.50;;;;;;5136861;27;19908;-68
2023/03/31 02:31:00;;;;;;;;;;;19.10;87.40;;;;;;5136651;27;19911;-68
2023/03/31 02:33:27;;;;;;;;;;;19.10;87.50;;;;;;5105079;27;20319;-68
2023/03/31 02:35:52;;;;;;;;;;;19.10;87.50;;;;;;5135235;27;20361;-65
2023/03/31 02:38:18;;;;;;;;;;;19.10;87.50;;;;;;5136001;27;19915;-68
2023/03/31 02:40:43;;;;;;;;;;;19.10;87.50;;;;;;5133556;27;19924;-68
2023/03/31 02:43:09;;;;;;;;;;;19.10;87.50;;;;;;5136882;27;20290;-68
2023/03/31 02:45:40;;;;;;;;;;;19.10;87.50;;;;;;5139986;27;19915;-67
2023/03/31 02:48:09;;;;;;;;;;;19.10;87.50;;;;;;5135351;27;19953;-68
2023/03/31 02:50:43;;;;;;;;;;;19.10;87.60;;;;;;5135469;27;20377;-67
2023/03/31 02:53:16;;;;;;;;;;;19.00;87.60;;;;;;5134378;27;20445;-68
2023/03/31 02:56:01;;;;;;;;;;;19.00;87.60;;;;;;5135040;27;19919;-68
2023/03/31 02:58:26;;;;;;;;;;;19.00;87.60;;;;;;5133261;27;19915;-68
2023/03/31 03:00:54;;;;;;;;;;;19.00;87.60;;;;;;5135345;27;19922;-68
2023/03/31 03:03:23;;;;;;;;;;;19.00;87.60;;;;;;5135580;27;19915;-68
2023/03/31 03:06:07;;;;;;;;;;;19.00;87.60;;;;;;5134900;27;19938;-67
2023/03/31 03:08:42;;;;;;;;;;;19.00;87.60;;;;;;5132317;27;20403;-68
2023/03/31 03:11:10;;;;;;;;;;;19.00;87.60;;;;;;5133726;27;19918;-67
2023/03/31 03:13:38;;;;;;;;;;;19.00;87.70;;;;;;5118464;27;19912;-67
2023/03/31 03:16:12;;;;;;;;;;;19.00;87.70;;;;;;5135264;27;19980;-68
2023/03/31 03:18:38;;;;;;;;;;;19.00;87.80;;;;;;5135811;27;19912;-68
2023/03/31 03:21:03;;;;;;;;;;;19.00;87.80;;;;;;5136127;27;19922;-68
2023/03/31 03:23:30;;;;;;;;;;;18.90;87.80;;;;;;5135329;27;19908;-67
2023/03/31 03:25:56;;;;;;;;;;;18.90;87.90;;;;;;5117383;27;19911;-68
2023/03/31 03:28:21;;;;;;;;;;;19.00;87.90;;;;;;5135870;27;19908;-68
2023/03/31 03:30:47;;;;;;;;;;;19.00;87.90;;;;;;5117289;27;19914;-65
2023/03/31 03:33:15;;;;;;;;;;;19.00;88.00;;;;;;5134339;27;19965;-68
2023/03/31 03:35:41;;;;;;;;;;;18.90;87.90;;;;;;5133215;27;19919;-68
2023/03/31 03:38:07;;;;;;;;;;;18.90;88.00;;;;;;5134672;27;19916;-67
2023/03/31 03:40:32;;;;;;;;;;;18.90;87.90;;;;;;5134188;27;19946;-68
2023/03/31 03:42:57;;;;;;;;;;;18.90;88.00;;;;;;5134001;27;20267;-68
2023/03/31 03:45:23;;;;;;;;;;;18.90;88.00;;;;;;5141180;27;19911;-68
2023/03/31 03:47:48;;;;;;;;;;;18.90;88.00;;;;;;5135111;27;19911;-68
2023/03/31 03:50:14;;;;;;;;;;;18.90;88.00;;;;;;5134220;27;19920;-68
2023/03/31 03:52:40;;;;;;;;;;;18.90;88.00;;;;;;5134113;27;20003;-68
2023/03/31 03:55:05;;;;;;;;;;;18.90;88.00;;;;;;5133556;27;19915;-67
2023/03/31 03:57:31;;;;;;;;;;;18.90;88.00;;;;;;5134864;27;19912;-68
2023/03/31 03:59:56;;;;;;;;;;;18.90;88.00;;;;;;5116096;27;19919;-68
2023/03/31 04:02:22;;;;;;;;;;;18.80;88.00;;;;;;5133208;27;19965;-68
2023/03/31 04:04:47;;;;;;;;;;;18.80;88.60;;;;;;5134217;27;19912;-68
2023/03/31 04:07:13;;;;;;;;;;;18.80;88.00;;;;;;5133059;27;19919;-68
2023/03/31 04:09:38;;;;;;;;;;;18.80;88.00;;;;;;5134151;27;19956;-68
2023/03/31 04:12:04;;;;;;;;;;;18.80;88.10;;;;;;5133045;27;20293;-68
2023/03/31 04:14:29;;;;;;;;;;;18.80;88.10;;;;;;5133464;27;19919;-68
2023/03/31 04:16:57;;;;;;;;;;;18.80;88.20;;;;;;5133472;27;19918;-68
2023/03/31 04:19:26;;;;;;;;;;;18.80;88.20;;;;;;5133922;27;19927;-68
2023/03/31 04:21:57;;;;;;;;;;;18.80;88.30;;;;;;5133818;27;20281;-68
2023/03/31 04:24:29;;;;;;;;;;;18.80;88.30;;;;;;5134457;28;20342;-68
2023/03/31 04:26:55;;;;;;;;;;;18.80;88.30;;;;;;5132783;28;19923;-68
2023/03/31 04:29:21;;;;;;;;;;;18.80;88.30;;;;;;5132978;28;19911;-68
2023/03/31 04:31:49;;;;;;;;;;;18.80;88.20;;;;;;5132089;28;19973;-68
2023/03/31 04:34:14;;;;;;;;;;;18.80;88.20;;;;;;5133577;28;19915;-68
2023/03/31 04:36:47;;;;;;;;;;;18.70;88.20;;;;;;5134579;28;20251;-68
2023/03/31 04:39:14;;;;;;;;;;;18.70;88.10;;;;;;5133811;28;19919;-68
2023/03/31 04:41:39;;;;;;;;;;;18.70;88.30;;;;;;5131644;28;19923;-67
2023/03/31 04:44:05;;;;;;;;;;;18.70;88.20;;;;;;5133343;28;19959;-68
2023/03/31 04:46:31;;;;;;;;;;;18.70;88.20;;;;;;5142854;27;20314;-69
2023/03/31 04:48:58;;;;;;;;;;;18.70;88.20;;;;;;5133586;28;19939;-69
2023/03/31 04:51:23;;;;;;;;;;;18.70;88.20;;;;;;5132724;28;19911;-68
2023/03/31 04:53:50;;;;;;;;;;;18.70;88.20;;;;;;5131788;28;20297;-68
2023/03/31 04:56:16;;;;;;;;;;;18.70;88.30;;;;;;5114439;28;20349;-68
2023/03/31 04:58:43;;;;;;;;;;;18.70;88.30;;;;;;5131238;27;19912;-68
2023/03/31 05:01:09;;;;;;;;;;;18.70;88.30;;;;;;5119564;27;19920;-68
2023/03/31 05:03:34;;;;;;;;;;;18.70;88.30;;;;;;5136653;27;20022;-67
2023/03/31 05:06:00;;;;;;;;;;;18.70;88.30;;;;;;5144712;27;19964;-68
2023/03/31 05:08:26;;;;;;;;;;;18.70;88.30;;;;;;5138272;27;19911;-68
2023/03/31 05:10:52;;;;;;;;;;;18.70;88.30;;;;;;5123063;27;19915;-68
2023/03/31 05:13:17;;;;;;;;;;;18.70;88.30;;;;;;5137315;27;20266;-67
2023/03/31 05:15:44;;;;;;;;;;;18.70;88.30;;;;;;5137607;27;19907;-67
2023/03/31 05:18:09;;;;;;;;;;;18.60;88.30;;;;;;5117396;27;19967;-67
2023/03/31 05:20:35;;;;;;;;;;;18.70;88.40;;;;;;5136571;27;19923;-68
2023/03/31 05:23:00;;;;;;;;;;;18.60;88.40;;;;;;5137264;27;20374;-68
2023/03/31 05:25:31;;;;;;;;;;;18.60;88.40;;;;;;5138474;27;20109;-68
2023/03/31 05:27:57;;;;;;;;;;;18.60;88.40;;;;;;5138075;27;19959;-68
2023/03/31 05:30:25;;;;;;;;;;;18.60;88.40;;;;;;5119774;27;20001;-68
2023/03/31 05:32:50;;;;;;;;;;;18.60;88.40;;;;;;5137155;27;19911;-68
2023/03/31 05:35:16;;;;;;;;;;;18.60;88.40;;;;;;5137715;27;20006;-68
2023/03/31 05:37:41;;;;;;;;;;;18.60;88.40;;;;;;5118615;27;20366;-67
2023/03/31 05:40:08;;;;;;;;;;;18.60;88.40;;;;;;5126283;27;20265;-67
2023/03/31 05:42:33;;;;;;;;;;;18.60;88.50;;;;;;5118210;27;19927;-67
2023/03/31 05:44:59;;;;;;;;;;;18.60;88.60;;;;;;5141596;27;19911;-68
2023/03/31 05:47:24;;;;;;;;;;;18.60;88.60;;;;;;5157786;27;19911;-67
2023/03/31 05:49:50;;;;;;;;;;;18.50;88.60;;;;;;5139654;27;19918;-67
2023/03/31 05:52:16;;;;;;;;;;;18.60;88.60;;;;;;5145971;27;20391;-68
2023/03/31 05:54:43;;;;;;;;;;;18.60;88.60;;;;;;5137431;27;19912;-68
2023/03/31 05:57:08;;;;;;;;;;;18.60;88.60;;;;;;5137084;27;20377;-67
2023/03/31 05:59:35;;;;;;;;;;;18.60;89.20;;;;;;5137105;27;19923;-68
2023/03/31 06:02:01;;;;;;;;;;;18.60;88.70;;;;;;5117385;27;20040;-68
2023/03/31 06:04:26;;;;;;;;;;;18.60;88.70;;;;;;5133238;27;19919;-68
2023/03/31 06:06:52;;;;;;;;;;;18.60;88.80;;;;;;5135831;27;20270;-68
2023/03/31 06:09:18;;;;;;;;;;;18.60;88.80;;;;;;5135048;27;20310;-68
2023/03/31 06:11:44;;;;;;;;;;;18.60;88.80;;;;;;5135722;27;19972;-64
2023/03/31 06:14:10;;;;;;;;;;;18.60;88.80;;;;;;5135512;27;19911;-65
2023/03/31 06:16:36;;;;;;;;;;;18.50;88.70;;;;;;5135678;27;20376;-66
2023/03/31 06:19:01;;;;;;;;;;;18.50;89.00;;;;;;5129669;27;19977;-65
2023/03/31 06:21:26;;;;;;;;;;;18.50;89.10;;;;;;5115708;27;19956;-66
2023/03/31 06:23:54;;;;;;;;;;;18.50;89.00;;;;;;5135275;27;20010;-66
2023/03/31 06:26:21;;;;;;;;;;;18.50;89.00;;;;;;5135782;27;19974;-66
2023/03/31 06:28:47;;;;;;;;;;;18.50;88.90;;;;;;5116566;27;19908;-63
2023/03/31 06:31:14;;;;;;;;;;;18.50;89.10;;;;;;5135844;27;19964;-69
2023/03/31 06:33:40;;;;;;;;;;;18.50;89.50;;;;;;5133294;27;19908;-69
2023/03/31 06:36:06;;;;;;;;;;;18.50;89.80;;;;;;5132671;27;19927;-65
2023/03/31 06:38:32;;;;;;;;;;;18.50;89.30;;;;;;5135129;27;19930;-67
2023/03/31 06:40:58;;;;;;;;;;;18.50;89.40;;;;;;5116531;27;20010;-67
2023/03/31 06:43:24;;;;;;;;;;;18.50;89.50;;;;;;5136856;27;20388;-67
2023/03/31 06:45:51;;;;;;;;;;;18.50;89.50;;;;;;5147707;27;19907;-66
2023/03/31 06:48:16;;;;;;;;;;;18.50;89.60;;;;;;5156859;27;19915;-68
2023/03/31 06:50:42;;;;;;;;;;;18.50;89.50;;;;;;5150275;27;19907;-67
2023/03/31 06:53:08;;;;;;;;;;;18.50;89.50;;;;;;5136045;27;20002;-67
2023/03/31 06:55:33;;;;;;;;;;;18.50;89.50;;;;;;5136202;27;19907;-67
2023/03/31 06:57:59;;;;;;;;;;;18.50;89.40;;;;;;5117659;27;19908;-66
2023/03/31 07:00:25;;;;;;;;;;;18.50;89.40;;;;;;5135581;27;19915;-61
2023/03/31 07:02:51;;;;;;;;;;;18.50;89.30;;;;;;5135149;27;19915;-67
2023/03/31 07:05:18;;;;;;;;;;;18.50;89.30;;;;;;5135902;27;20041;-67
2023/03/31 07:07:43;;;;;;;;;;;18.50;89.30;;;;;;5136046;27;19914;-68
2023/03/31 07:10:09;;;;;;;;;;;18.50;89.30;;;;;;5136296;27;19907;-65
2023/03/31 07:12:35;;;;;;;;;;;18.50;89.30;;;;;;5135306;27;20362;-67
2023/03/31 07:15:00;;;;;;;;;;;18.50;89.30;;;;;;5117713;27;19912;-67
2023/03/31 07:17:26;;;;;;;;;;;18.50;89.20;;;;;;5135951;27;19907;-67
2023/03/31 07:19:51;;;;;;;;;;;18.50;89.20;;;;;;5135576;27;19918;-68
2023/03/31 07:22:16;;;;;;;;;;;18.50;89.20;;;;;;5133483;27;20014;-68
2023/03/31 07:24:42;;;;;;;;;;;18.40;89.10;;;;;;5135491;27;20282;-67
2023/03/31 07:27:08;;;;;;;;;;;18.40;89.20;;;;;;5135801;27;19942;-67
2023/03/31 07:29:33;;;;;;;;;;;18.40;89.10;;;;;;5135452;27;19908;-68
2023/03/31 07:31:59;;;;;;;;;;;18.50;89.20;;;;;;5134472;27;19929;-68
2023/03/31 07:34:24;;;;;;;;;;;18.40;89.10;;;;;;5117179;27;20397;-67
2023/03/31 07:36:50;;;;;;;;;;;18.40;89.00;;;;;;5116726;27;19912;-68
2023/03/31 07:39:16;;;;;;;;;;;18.40;89.00;;;;;;5135371;27;20373;-68
2023/03/31 07:41:41;;;;;;;;;;;18.40;89.10;;;;;;5134004;27;19919;-66
2023/03/31 07:44:06;;;;;;;;;;;18.40;89.10;;;;;;5135033;27;19998;-67
2023/03/31 07:46:32;;;;;;;;;;;18.40;89.00;;;;;;5152194;27;19915;-67
2023/03/31 07:48:58;;;;;;;;;;;18.40;89.40;;;;;;5155957;27;19907;-67
2023/03/31 07:51:25;;;;;;;;;;;18.40;89.00;;;;;;5141399;27;19911;-67
2023/03/31 07:53:51;;;;;;;;;;;18.40;89.00;;;;;;5135571;27;19907;-66
2023/03/31 07:56:17;;;;;;;;;;;18.40;89.00;;;;;;5135364;27;19922;-66
2023/03/31 07:58:43;;;;;;;;;;;18.40;89.00;;;;;;5116986;27;19908;-67
2023/03/31 08:01:11;;;;;;;;;;;18.40;89.00;;;;;;5133988;27;19919;-67
2023/03/31 08:03:36;;;;;;;;;;;18.40;89.00;;;;;;5132803;27;19935;-67
2023/03/31 08:06:02;;;;;;;;;;;18.30;88.90;;;;;;5135440;27;19946;-67
2023/03/31 08:08:27;;;;;;;;;;;18.30;88.90;;;;;;5134682;27;19961;-66
2023/03/31 08:10:53;;;;;;;;;;;18.30;89.40;;;;;;5135260;27;19915;-67
2023/03/31 08:13:18;;;;;;;;;;;18.30;88.90;;;;;;5133972;27;19912;-67
2023/03/31 08:15:44;;;;;;;;;;;18.30;89.00;;;;;;5131481;27;19919;-66
2023/03/31 08:18:09;;;;;;;;;;;18.30;89.10;;;;;;5115918;27;20255;-66
2023/03/31 08:20:35;;;;;;;;;;;18.30;89.00;;;;;;5134042;28;20366;-67
2023/03/31 08:23:01;;;;;;;;;;;18.30;89.00;;;;;;5134718;27;19907;-66
2023/03/31 08:25:26;;;;;;;;;;;18.30;88.90;;;;;;5134771;28;19908;-67
2023/03/31 08:27:52;;;;;;;;;;;18.30;88.90;;;;;;5134805;28;19972;-67
2023/03/31 08:30:18;;;;;;;;;;;18.30;88.90;;;;;;5134816;28;19907;-66
2023/03/31 08:32:43;;;;;;;;;;;18.40;88.90;;;;;;5133523;27;19911;-67
2023/03/31 08:35:09;;;;;;;;;;;18.30;88.80;;;;;;5137912;27;20284;-66
2023/03/31 08:37:36;;;;;;;;;;;18.30;88.60;;;;;;5138857;27;20400;-67
2023/03/31 08:40:04;;;;;;;;;;;18.30;88.60;;;;;;5137077;27;19920;-66
2023/03/31 08:42:35;;;;;;;;;;;18.30;88.70;;;;;;5138968;27;20261;-67
2023/03/31 08:45:03;;;;;;;;;;;18.30;88.80;;;;;;5143212;27;19908;-67
2023/03/31 08:47:31;;;;;;;;;;;18.30;88.60;;;;;;5159263;27;20357;-67
2023/03/31 08:50:04;;;;;;;;;;;18.30;88.70;;;;;;5136716;27;19923;-67
2023/03/31 08:52:35;;;;;;;;;;;18.30;88.60;;;;;;5138914;27;20002;-67
2023/03/31 08:55:03;;;;;;;;;;;18.40;88.90;;;;;;5138502;27;19908;-66
2023/03/31 08:57:37;;;;;;;;;;;18.40;88.80;;;;;;5138281;27;20018;-67
2023/03/31 09:00:05;;;;;;;;;;;18.40;88.70;;;;;;5119349;27;19938;-66
2023/03/31 09:02:37;;;;;;;;;;;18.40;88.60;;;;;;5120374;27;19940;-67
2023/03/31 09:05:21;;;;;;;;;;;18.40;88.60;;;;;;5138890;27;19999;-67
2023/03/31 09:08:06;;;;;;;;;;;18.50;88.60;;;;;;5138533;27;19908;-67
2023/03/31 09:10:34;;;;;;;;;;;18.50;88.50;;;;;;5137201;27;19942;-67
2023/03/31 09:13:09;;;;;;;;;;;18.50;88.40;;;;;;5136769;27;19918;-67
2023/03/31 09:15:45;;;;;;;;;;;18.50;88.40;;;;;;5136903;27;19920;-66
2023/03/31 09:18:19;;;;;;;;;;;18.50;88.20;;;;;;5138368;27;19907;-66
2023/03/31 09:20:48;;;;;;;;;;;18.50;88.10;;;;;;5138301;27;19927;-67
2023/03/31 09:23:23;;;;;;;;;;;18.60;88.10;;;;;;5138160;27;19907;-66
2023/03/31 09:25:50;;;;;;;;;;;18.60;88.10;;;;;;5137289;27;19983;-67
2023/03/31 09:28:20;;;;;;;;;;;18.60;88.00;;;;;;5137855;27;19907;-67
2023/03/31 09:30:48;;;;;;;;;;;18.60;87.90;;;;;;5137911;27;19918;-67
2023/03/31 09:33:23;;;;;;;;;;;18.60;87.80;;;;;;5138078;27;20002;-67
2023/03/31 09:35:48;;;;;;;;;;;18.60;87.80;;;;;;5138107;27;19908;-67
2023/03/31 09:38:14;;;;;;;;;;;18.60;87.70;;;;;;5135238;27;19979;-65
2023/03/31 09:40:41;;;;;;;;;;;18.60;87.70;;;;;;5136958;27;19915;-66
2023/03/31 09:43:17;;;;;;;;;;;18.60;87.70;;;;;;5137606;27;19907;-67
2023/03/31 09:45:43;;;;;;;;;;;18.60;87.70;;;;;;5147113;27;19907;-66
2023/03/31 09:48:17;;;;;;;;;;;18.70;87.70;;;;;;5142199;27;19957;-67
2023/03/31 09:50:48;;;;;;;;;;;18.60;87.60;;;;;;5119309;27;20363;-68
2023/03/31 09:53:24;;;;;;;;;;;18.70;87.60;;;;;;5137585;27;19961;-67
2023/03/31 09:55:52;;;;;;;;;;;18.60;87.60;;;;;;5118729;27;20353;-66
2023/03/31 09:58:17;;;;;;;;;;;18.60;87.50;;;;;;5136411;27;19947;-67
2023/03/31 10:00:57;;;;;;;;;;;18.60;87.50;;;;;;5137038;27;19982;-65
2023/03/31 10:03:23;;;;;;;;;;;18.70;87.60;;;;;;5118848;27;20362;-67
2023/03/31 10:05:50;;;;;;;;;;;18.70;87.50;;;;;;5137661;27;19907;-67
2023/03/31 10:08:15;;;;;;;;;;;18.70;87.50;;;;;;5117750;27;19918;-68
2023/03/31 10:11:05;;;;;;;;;;;18.70;87.50;;;;;;5136172;27;20289;-67
2023/03/31 10:13:48;;;;;;;;;;;18.70;87.40;;;;;;5126606;27;20365;-67
2023/03/31 10:16:33;;;;;;;;;;;18.70;87.40;;;;;;5136773;27;20310;-66
2023/03/31 10:19:17;;;;;;;;;;;18.70;87.40;;;;;;5136306;27;19964;-67
2023/03/31 10:21:44;;;;;;;;;;;18.70;87.30;;;;;;5128177;27;19919;-67
2023/03/31 10:24:10;;;;;;;;;;;18.70;87.30;;;;;;5132585;27;19930;-66
2023/03/31 10:26:35;;;;;;;;;;;18.70;87.30;;;;;;5135587;27;19941;-67
2023/03/31 10:29:01;;;;;;;;;;;18.70;87.30;;;;;;5115334;27;20417;-67
2023/03/31 10:31:34;;;;;;;;;;;18.70;87.20;;;;;;5134079;27;20269;-67
2023/03/31 10:34:03;;;;;;;;;;;18.70;87.20;;;;;;5134973;27;19965;-67
2023/03/31 10:36:30;;;;;;;;;;;18.70;87.20;;;;;;5133325;27;19911;-67
2023/03/31 10:38:56;;;;;;;;;;;18.70;87.20;;;;;;5135559;27;19954;-67
2023/03/31 10:41:23;;;;;;;;;;;18.70;87.20;;;;;;5135407;27;19954;-67
2023/03/31 10:43:50;;;;;;;;;;;18.70;87.20;;;;;;5134464;27;19911;-67
2023/03/31 10:46:16;;;;;;;;;;;18.70;87.20;;;;;;5147618;27;19957;-66
2023/03/31 10:48:43;;;;;;;;;;;18.70;87.70;;;;;;5134382;27;19986;-65
2023/03/31 10:51:17;;;;;;;;;;;18.70;87.00;;;;;;5135204;27;20284;-65
2023/03/31 10:53:47;;;;;;;;;;;18.70;87.00;;;;;;5116657;27;19961;-64
2023/03/31 10:56:13;;;;;;;;;;;18.70;87.00;;;;;;5132136;27;19995;-64
2023/03/31 10:58:46;;;;;;;;;;;18.70;87.00;;;;;;5133683;27;20375;-65
2023/03/31 11:01:23;;;;;;;;;;;18.70;87.00;;;;;;5135242;27;20418;-66
2023/03/31 11:04:03;;;;;;;;;;;18.70;86.90;;;;;;5133991;27;20002;-66
2023/03/31 11:06:38;;;;;;;;;;;18.80;87.00;;;;;;5134839;27;19934;-65
2023/03/31 11:09:18;;;;;;;;;;;18.80;86.90;;;;;;5131590;27;20289;-65
2023/03/31 11:11:51;;;;;;;;;;;18.70;86.90;;;;;;5134041;27;19911;-66
2023/03/31 11:14:34;;;;;;;;;;;18.70;86.80;;;;;;5132944;27;19923;-65
2023/03/31 11:17:08;;;;;;;;;;;18.70;86.80;;;;;;5115562;27;20417;-66
2023/03/31 11:19:52;;;;;;;;;;;18.70;86.80;;;;;;5132813;27;19920;-66
2023/03/31 11:22:44;;;;;;;;;;;18.70;86.80;;;;;;5132431;27;19911;-66
2023/03/31 11:25:20;;;;;;;;;;;18.70;86.80;;;;;;5127903;27;19911;-65
2023/03/31 11:28:04;;;;;;;;;;;18.70;86.80;;;;;;5115779;27;19915;-63
2023/03/31 11:30:38;;;;;;;;;;;18.70;86.70;;;;;;5133134;27;20006;-65
2023/03/31 11:33:22;;;;;;;;;;;18.70;86.70;;;;;;5133895;27;19919;-64
2023/03/31 11:35:55;;;;;;;;;;;18.70;86.60;;;;;;5130091;27;19919;-65
2023/03/31 11:38:20;;;;;;;;;;;18.70;86.60;;;;;;5131884;27;19911;-66
2023/03/31 11:41:01;;;;;;;;;;;18.70;86.60;;;;;;5116069;27;19919;-65
2023/03/31 11:43:29;;;;;;;;;;;18.70;86.60;;;;;;5132846;27;19919;-65
2023/03/31 11:45:59;;;;;;;;;;;18.70;86.60;;;;;;5134055;27;20296;-65
2023/03/31 11:48:31;;;;;;;;;;;18.70;86.60;;;;;;5114491;27;20418;-65
2023/03/31 11:50:57;;;;;;;;;;;18.70;86.50;;;;;;5118021;27;19919;-66
2023/03/31 11:53:26;;;;;;;;;;;18.70;86.40;;;;;;5116950;27;19907;-66
2023/03/31 11:55:53;;;;;;;;;;;18.70;86.50;;;;;;5135137;27;19911;-65
2023/03/31 11:58:26;;;;;;;;;;;18.70;86.50;;;;;;5140372;27;19975;-69
2023/03/31 12:01:08;;;;;;;;;;;18.70;86.20;;;;;;5117493;27;20452;-65
2023/03/31 12:03:34;;;;;;;;;;;18.60;82.50;;;;;;5132151;27;19960;-65
2023/03/31 12:06:06;;;;;;;;;;;18.60;85.30;;;;;;5135307;27;19908;-65
2023/03/31 12:08:40;;;;;;;;;;;18.60;86.10;;;;;;5133985;27;20318;-65
2023/03/31 12:11:12;;;;;;;;;;;18.60;86.30;;;;;;5134454;27;19915;-65
2023/03/31 12:13:37;;;;;;;;;;;18.70;86.50;;;;;;5133939;27;20003;-65
2023/03/31 12:16:08;;;;;;;;;;;18.70;86.50;;;;;;5116424;27;19915;-65
2023/03/31 12:18:36;;;;;;;;;;;18.70;86.60;;;;;;5134092;27;19908;-64
2023/03/31 12:21:03;;;;;;;;;;;18.70;86.60;;;;;;5134640;27;19918;-65
2023/03/31 12:23:31;;;;;;;;;;;18.70;87.30;;;;;;5134498;27;20289;-64
2023/03/31 12:26:07;;;;;;;;;;;18.70;86.70;;;;;;5134569;28;19907;-64
2023/03/31 12:28:33;;;;;;;;;;;18.80;86.80;;;;;;5134585;28;19953;-64
2023/03/31 12:31:00;;;;;;;;;;;18.70;86.90;;;;;;5133215;27;19911;-64
2023/03/31 12:33:38;;;;;;;;;;;18.70;86.80;;;;;;5134742;28;19907;-65
2023/03/31 12:36:10;;;;;;;;;;;18.70;86.70;;;;;;5133458;28;19960;-64
2023/03/31 12:38:38;;;;;;;;;;;18.70;86.70;;;;;;5132573;28;19998;-65
2023/03/31 12:41:13;;;;;;;;;;;18.70;86.80;;;;;;5112784;28;19919;-64
2023/03/31 12:43:57;;;;;;;;;;;18.70;86.90;;;;;;5132629;28;19947;-63
2023/03/31 12:46:32;;;;;;;;;;;18.70;86.90;;;;;;5148531;27;20363;-64
2023/03/31 12:49:02;;;;;;;;;;;18.70;86.90;;;;;;5152930;27;20358;-63
2023/03/31 12:51:46;;;;;;;;;;;18.70;86.90;;;;;;5135417;27;19915;-64
2023/03/31 12:54:15;;;;;;;;;;;18.70;86.90;;;;;;5133966;28;19996;-65
2023/03/31 12:56:59;;;;;;;;;;;18.70;86.90;;;;;;5134389;28;19998;-65
2023/03/31 12:59:41;;;;;;;;;;;18.70;87.00;;;;;;5115743;28;19934;-64
2023/03/31 13:02:06;;;;;;;;;;;18.80;87.10;;;;;;5115251;28;19919;-66
2023/03/31 13:04:32;;;;;;;;;;;18.70;87.00;;;;;;5134114;28;19919;-65
2023/03/31 13:06:58;;;;;;;;;;;18.70;87.00;;;;;;5134940;28;20299;-64
2023/03/31 13:09:24;;;;;;;;;;;18.70;87.00;;;;;;5119449;28;20360;-65
2023/03/31 13:11:49;;;;;;;;;;;18.70;86.80;;;;;;5131181;28;19932;-65
2023/03/31 13:14:22;;;;;;;;;;;18.70;86.70;;;;;;5130191;28;19920;-70
2023/03/31 13:16:48;;;;;;;;;;;18.80;86.90;;;;;;5134123;28;19914;-65
2023/03/31 13:19:29;;;;;;;;;;;18.70;86.80;;;;;;5129144;27;19912;-67
2023/03/31 13:21:56;;;;;;;;;;;18.80;87.00;;;;;;5149579;27;19997;-67
2023/03/31 13:24:22;;;;;;;;;;;18.80;87.10;;;;;;5154421;27;19907;-67
2023/03/31 13:26:48;;;;;;;;;;;18.80;87.10;;;;;;5137514;27;19907;-66
2023/03/31 13:29:13;;;;;;;;;;;18.80;87.10;;;;;;5137886;27;19908;-67
2023/03/31 13:31:57;;;;;;;;;;;18.80;87.10;;;;;;5138078;27;19914;-67
2023/03/31 13:34:23;;;;;;;;;;;18.80;87.10;;;;;;5142444;27;19911;-68
2023/03/31 13:36:56;;;;;;;;;;;18.80;87.10;;;;;;5138000;27;19998;-68
2023/03/31 13:39:32;;;;;;;;;;;18.80;86.20;;;;;;5137854;27;19914;-68
2023/03/31 13:42:07;;;;;;;;;;;18.80;87.10;;;;;;5118847;27;19972;-68
2023/03/31 13:44:41;;;;;;;;;;;18.80;87.30;;;;;;5137724;27;19907;-68
2023/03/31 13:47:10;;;;;;;;;;;18.80;87.20;;;;;;5158131;27;19907;-68
2023/03/31 13:50:02;;;;;;;;;;;18.80;87.20;;;;;;5158228;27;19967;-68
2023/03/31 13:52:37;;;;;;;;;;;18.80;87.00;;;;;;5158727;27;19907;-68
2023/03/31 13:55:15;;;;;;;;;;;18.80;86.90;;;;;;5138644;27;19908;-68
2023/03/31 13:58:00;;;;;;;;;;;18.80;86.90;;;;;;5122733;27;20318;-67
2023/03/31 14:00:28;;;;;;;;;;;18.80;86.70;;;;;;5118350;27;19974;-68
2023/03/31 14:03:12;;;;;;;;;;;18.80;86.70;;;;;;5137312;27;19995;-69
2023/03/31 14:05:42;;;;;;;;;;;18.80;86.60;;;;;;5138721;27;19955;-68
2023/03/31 14:08:13;;;;;;;;;;;18.80;86.60;;;;;;5136671;27;19934;-68
2023/03/31 14:10:41;;;;;;;;;;;18.80;86.60;;;;;;5137106;27;19915;-68
2023/03/31 14:13:11;;;;;;;;;;;18.80;86.60;;;;;;5136778;27;20018;-68
2023/03/31 14:15:39;;;;;;;;;;;18.80;87.10;;;;;;5138215;27;20417;-68
2023/03/31 14:18:05;;;;;;;;;;;18.80;86.50;;;;;;5148588;27;19951;-68
2023/03/31 14:20:31;;;;;;;;;;;18.80;86.40;;;;;;5136350;27;20410;-68
2023/03/31 14:23:08;;;;;;;;;;;18.80;86.40;;;;;;5138586;27;19947;-68
2023/03/31 14:25:41;;;;;;;;;;;18.70;86.40;;;;;;5132993;27;19908;-67
2023/03/31 14:28:17;;;;;;;;;;;18.70;86.30;;;;;;5140367;27;19911;-68